This is the latest recevied weather packets stored in our database for station/object OE5RBO. If no packets are shown the sender has not sent any weather packets the latest 10 day(s).
| Time | Temp. | Humidity | Pressure | Rain* | Wind** | Luminosity | Snow |
|---|---|---|---|---|---|---|---|
| 1788192146 | 24.44° C | 65% | 1016.8 hPa | 1.52 mm | - | - | - |
| 1788191546 | 24.44° C | 64% | 1016.9 hPa | 1.52 mm | - | - | - |
| 1788190946 | 25° C | 66% | 1016.8 hPa | 1.52 mm | - | - | - |
| 1788190345 | 25° C | 64% | 1017 hPa | 1.52 mm | - | - | - |
| 1788189745 | 25.56° C | 66% | 1017 hPa | 1.52 mm | - | - | - |
| 1788189145 | 25° C | 64% | 1017.2 hPa | 1.52 mm | - | - | - |
| 1788188544 | 25° C | 65% | 1017.3 hPa | 1.52 mm | - | - | - |
| 1788187944 | 25° C | 63% | 1017.4 hPa | 1.52 mm | - | - | - |
| 1788187344 | 24.44° C | 67% | 1017.4 hPa | 1.52 mm | - | - | - |
| 1788185542 | 26.11° C | 60% | 1017.2 hPa | 1.52 mm | - | - | - |
| 1788184942 | 26.67° C | 57% | 1017.2 hPa | 1.52 mm | - | - | - |
| 1788184342 | 26.67° C | 59% | 1017.3 hPa | 1.52 mm | - | - | - |
| 1788183741 | 28.33° C | 50% | 1017.2 hPa | 1.52 mm | - | - | - |
| 1788183141 | 27.78° C | 58% | 1017.3 hPa | 1.52 mm | - | - | - |
| 1788182541 | 27.22° C | 60% | 1017.3 hPa | 1.52 mm | - | - | - |
| 1788181940 | 27.22° C | 59% | 1017.4 hPa | 1.52 mm | - | - | - |
| 1788181340 | 26.67° C | 61% | 1017.7 hPa | 1.52 mm | - | - | - |
| 1788180739 | 26.11° C | 64% | 1017.6 hPa | 1.52 mm | - | - | - |
| 1788180145 | 25.56° C | 63% | 1017.7 hPa | 1.52 mm | - | - | - |
| 1788178939 | 25.56° C | 65% | 1017.9 hPa | 1.52 mm | - | - | - |
| 1788177738 | 26.11° C | 64% | 1017.9 hPa | 1.52 mm | - | - | - |
| 1788177138 | 24.44° C | 68% | 1017.7 hPa | 1.52 mm | - | - | - |
| 1788175937 | 26.11° C | 63% | 1018 hPa | 1.52 mm | - | - | - |
| 1788174136 | 24.44° C | 69% | 1018 hPa | 1.52 mm | - | - | - |
| 1788173535 | 24.44° C | 67% | 1018.2 hPa | 1.52 mm | - | - | - |
* Rain since midnight (hover to see other rain measurements)
** Current wind speed in m/s (hover to see current wind gust speed)